Time;durP1;ratioP1;P1;durP2;ratioP2;P2;SDS_P1;SDS_P2;PMS_P1;PMS_P2;Temp;Humidity;BMP_temperature;BMP_pressure;BME280_temperature;BME280_humidity;BME280_pressure;Samples;Min_cycle;Max_cycle;Signal;HPM_P1;HPM_P2
2023/10/03 00:00:09;;;;;;;24.83;13.93;;;15.20;99.90;;;;;;5079801;28;20253;-80
2023/10/03 00:02:36;;;;;;;24.33;14.33;;;15.20;99.90;;;;;;5071590;28;20247;-81
2023/10/03 00:05:07;;;;;;;22.93;14.50;;;15.20;99.90;;;;;;5080906;28;20913;-80
2023/10/03 00:07:35;;;;;;;23.30;13.83;;;15.20;99.90;;;;;;5078307;28;20590;-80
2023/10/03 00:10:02;;;;;;;23.70;14.37;;;15.20;99.90;;;;;;5079352;28;20262;-81
2023/10/03 00:12:30;;;;;;;26.13;13.93;;;15.20;99.90;;;;;;5077183;28;20777;-81
2023/10/03 00:14:57;;;;;;;23.87;14.03;;;15.20;99.90;;;;;;5076848;28;20306;-82
2023/10/03 00:17:24;;;;;;;23.77;13.90;;;15.20;99.90;;;;;;5081792;28;20240;-81
2023/10/03 00:19:51;;;;;;;22.70;13.87;;;15.20;99.90;;;;;;5081480;28;20249;-81
2023/10/03 00:22:19;;;;;;;21.93;13.73;;;15.20;99.90;;;;;;5079973;28;20976;-81
2023/10/03 00:24:46;;;;;;;23.80;14.07;;;15.20;99.90;;;;;;5068197;28;20335;-81
2023/10/03 00:27:15;;;;;;;25.27;13.43;;;15.30;99.90;;;;;;5080133;28;20253;-81
2023/10/03 00:29:44;;;;;;;21.53;13.23;;;15.30;99.90;;;;;;5080224;28;20271;-81
2023/10/03 00:32:11;;;;;;;22.17;13.17;;;15.30;99.90;;;;;;5079672;28;20236;-81
2023/10/03 00:34:41;;;;;;;23.47;14.47;;;15.30;99.90;;;;;;5082067;28;20228;-81
2023/10/03 00:37:08;;;;;;;22.37;12.93;;;15.30;99.90;;;;;;5077802;28;20235;-81
2023/10/03 00:39:35;;;;;;;21.97;13.10;;;15.30;99.90;;;;;;5086133;28;21024;-81
2023/10/03 00:42:05;;;;;;;22.87;13.33;;;15.30;99.90;;;;;;5085499;28;20299;-80
2023/10/03 00:44:32;;;;;;;21.53;12.83;;;15.40;99.90;;;;;;5088012;28;20227;-81
2023/10/03 00:47:00;;;;;;;19.90;11.77;;;15.40;99.90;;;;;;5080854;28;20307;-81
2023/10/03 00:49:29;;;;;;;22.87;13.07;;;15.40;99.90;;;;;;5079470;28;20236;-80
2023/10/03 00:51:57;;;;;;;22.40;13.60;;;15.40;99.90;;;;;;5086024;28;20250;-81
2023/10/03 00:54:27;;;;;;;23.13;13.23;;;15.50;99.90;;;;;;5073004;28;20225;-80
2023/10/03 00:56:55;;;;;;;24.50;12.77;;;15.50;99.90;;;;;;5086163;28;20283;-80
2023/10/03 00:59:22;;;;;;;21.17;12.67;;;15.50;99.90;;;;;;5081133;28;20283;-80
2023/10/03 01:01:50;;;;;;;22.77;13.00;;;15.50;99.90;;;;;;5082670;28;20703;-80
2023/10/03 01:04:19;;;;;;;23.07;12.57;;;15.50;99.90;;;;;;5084355;28;20321;-80
2023/10/03 01:06:47;;;;;;;22.20;13.17;;;15.50;99.90;;;;;;5067961;28;20218;-81
2023/10/03 01:09:24;;;;;;;22.50;12.87;;;15.50;99.90;;;;;;5084313;28;20775;-80
2023/10/03 01:11:53;;;;;;;21.13;12.87;;;15.50;99.90;;;;;;5082904;28;20316;-83
2023/10/03 01:14:21;;;;;;;21.47;13.33;;;15.60;99.90;;;;;;5069869;28;20646;-81
2023/10/03 01:16:48;;;;;;;22.23;12.87;;;15.50;99.90;;;;;;5072402;28;20224;-82
2023/10/03 01:19:20;;;;;;;21.57;13.10;;;15.60;99.90;;;;;;5086473;28;20707;-79
2023/10/03 01:21:50;;;;;;;24.73;13.27;;;15.50;99.90;;;;;;5073075;28;20233;-80
2023/10/03 01:24:22;;;;;;;22.97;13.40;;;15.50;99.90;;;;;;5086619;28;20220;-80
2023/10/03 01:26:52;;;;;;;20.93;13.03;;;15.50;99.90;;;;;;5084260;28;20222;-81
2023/10/03 01:29:19;;;;;;;21.10;12.90;;;15.50;99.90;;;;;;5085969;28;20556;-81
2023/10/03 01:31:48;;;;;;;22.50;12.93;;;15.50;99.90;;;;;;5084873;28;20217;-81
2023/10/03 01:34:15;;;;;;;20.47;12.03;;;15.50;99.90;;;;;;5081006;28;20314;-81
2023/10/03 01:36:45;;;;;;;25.87;13.07;;;15.40;99.90;;;;;;5076135;28;20229;-81
2023/10/03 01:39:13;;;;;;;22.93;12.03;;;15.40;99.90;;;;;;5082969;28;20234;-81
2023/10/03 01:41:42;;;;;;;19.30;12.03;;;15.40;99.90;;;;;;5085259;28;20736;-81
2023/10/03 01:44:09;;;;;;;20.53;12.63;;;15.40;99.90;;;;;;5101727;28;20815;-80
2023/10/03 01:46:38;;;;;;;22.47;12.03;;;15.30;99.90;;;;;;5087262;28;20222;-81
2023/10/03 01:49:06;;;;;;;18.93;11.47;;;15.30;99.90;;;;;;5083931;28;20280;-80
2023/10/03 01:51:33;;;;;;;19.60;11.10;;;15.30;99.90;;;;;;5094234;28;20249;-81
2023/10/03 01:54:00;;;;;;;18.67;11.50;;;15.30;99.90;;;;;;5081577;28;20219;-81
2023/10/03 01:56:27;;;;;;;23.93;12.27;;;15.30;99.90;;;;;;5086596;28;20222;-80
2023/10/03 01:58:55;;;;;;;19.97;11.60;;;15.20;99.90;;;;;;5079985;28;20253;-80
2023/10/03 02:01:24;;;;;;;19.57;10.77;;;15.20;99.90;;;;;;5080497;28;20303;-81
2023/10/03 02:03:51;;;;;;;19.87;11.63;;;15.20;99.90;;;;;;5097428;28;20229;-81
2023/10/03 02:06:19;;;;;;;19.03;11.20;;;15.20;99.90;;;;;;5081655;28;20301;-82
2023/10/03 02:08:47;;;;;;;19.43;11.00;;;15.20;99.90;;;;;;5075244;28;20741;-82
2023/10/03 02:11:16;;;;;;;16.83;11.10;;;15.20;99.90;;;;;;5080431;28;20222;-81
2023/10/03 02:13:42;;;;;;;17.40;11.30;;;15.10;99.90;;;;;;5075916;28;20311;-81
2023/10/03 02:16:12;;;;;;;17.70;9.97;;;15.10;99.90;;;;;;5081124;28;20641;-81
2023/10/03 02:18:40;;;;;;;19.53;11.37;;;15.10;99.90;;;;;;5080015;28;20863;-81
2023/10/03 02:21:09;;;;;;;18.67;11.30;;;15.10;99.90;;;;;;5081851;28;20647;-81
2023/10/03 02:23:35;;;;;;;17.30;10.87;;;15.10;99.90;;;;;;5084960;28;20283;-80
2023/10/03 02:26:10;;;;;;;19.07;10.93;;;15.10;99.90;;;;;;5079811;28;20606;-80
2023/10/03 02:28:37;;;;;;;16.50;10.77;;;15.10;99.90;;;;;;5082594;28;20232;-80
2023/10/03 02:31:07;;;;;;;18.50;11.07;;;15.10;99.90;;;;;;5082449;28;20658;-81
2023/10/03 02:33:40;;;;;;;19.00;10.67;;;15.10;99.90;;;;;;5081885;28;20282;-80
2023/10/03 02:36:09;;;;;;;19.33;11.23;;;15.10;99.90;;;;;;5084322;28;20302;-80
2023/10/03 02:38:37;;;;;;;19.07;10.67;;;15.10;99.90;;;;;;5082446;28;20315;-80
2023/10/03 02:41:06;;;;;;;18.50;10.70;;;15.10;99.90;;;;;;5083144;28;20242;-80
2023/10/03 02:43:38;;;;;;;17.23;10.77;;;15.20;99.90;;;;;;5076157;28;20747;-81
2023/10/03 02:46:07;;;;;;;17.67;10.00;;;15.20;99.90;;;;;;5082513;28;20226;-80
2023/10/03 02:48:35;;;;;;;16.83;10.07;;;15.20;99.90;;;;;;5083414;28;20229;-80
2023/10/03 02:51:06;;;;;;;16.87;10.70;;;15.20;99.90;;;;;;5082736;28;20225;-81
2023/10/03 02:53:35;;;;;;;16.77;10.23;;;15.20;99.90;;;;;;5078342;28;20227;-81
2023/10/03 02:56:03;;;;;;;17.67;10.70;;;15.30;99.90;;;;;;5080935;28;20644;-81
2023/10/03 02:58:30;;;;;;;18.90;11.20;;;15.30;99.90;;;;;;5074628;28;20221;-80
2023/10/03 03:01:00;;;;;;;18.37;10.07;;;15.30;99.90;;;;;;5082718;28;20718;-80
2023/10/03 03:03:30;;;;;;;17.20;10.30;;;15.30;99.90;;;;;;5080539;28;20222;-80
2023/10/03 03:05:58;;;;;;;18.37;10.17;;;15.30;99.90;;;;;;5081210;28;20232;-80
2023/10/03 03:08:28;;;;;;;17.10;10.10;;;15.30;99.90;;;;;;5073471;28;20261;-82
2023/10/03 03:10:58;;;;;;;17.53;10.50;;;15.30;99.90;;;;;;5080134;28;20221;-81
2023/10/03 03:13:26;;;;;;;20.03;10.20;;;15.30;99.90;;;;;;5077878;28;20280;-81
2023/10/03 03:15:53;;;;;;;18.63;10.63;;;15.30;99.90;;;;;;5079769;28;20728;-81
2023/10/03 03:18:21;;;;;;;17.83;10.53;;;15.30;99.90;;;;;;5070321;28;20234;-82
2023/10/03 03:20:53;;;;;;;14.47;9.83;;;15.30;99.90;;;;;;5084921;28;20226;-82
2023/10/03 03:23:20;;;;;;;17.60;9.50;;;15.30;99.90;;;;;;5096073;28;20253;-82
2023/10/03 03:25:57;;;;;;;14.93;9.60;;;15.30;99.90;;;;;;5078189;28;20535;-82
2023/10/03 03:28:24;;;;;;;18.00;10.50;;;15.30;99.90;;;;;;5077765;28;20222;-81
2023/10/03 03:30:56;;;;;;;15.13;10.00;;;15.30;99.90;;;;;;5082787;28;20234;-81
2023/10/03 03:33:27;;;;;;;15.37;10.33;;;15.30;99.90;;;;;;5082744;28;20492;-81
2023/10/03 03:35:54;;;;;;;17.07;9.77;;;15.30;99.90;;;;;;5082038;28;20221;-81
2023/10/03 03:38:22;;;;;;;15.47;8.90;;;15.30;99.90;;;;;;5083340;28;20230;-81
2023/10/03 03:40:56;;;;;;;16.17;9.70;;;15.30;99.90;;;;;;5086968;28;20589;-81
2023/10/03 03:43:24;;;;;;;14.73;9.30;;;15.30;99.90;;;;;;5081752;28;20229;-80
2023/10/03 03:45:52;;;;;;;17.83;10.07;;;15.20;99.90;;;;;;5082924;28;20230;-81
2023/10/03 03:48:21;;;;;;;15.63;9.67;;;15.30;99.90;;;;;;5081863;28;20221;-80
2023/10/03 03:50:50;;;;;;;14.67;9.40;;;15.30;99.90;;;;;;5084866;28;20242;-80
2023/10/03 03:53:18;;;;;;;16.00;9.37;;;15.30;99.90;;;;;;5083592;28;20218;-81
2023/10/03 03:55:45;;;;;;;15.77;9.53;;;15.30;99.90;;;;;;5085312;28;20316;-80
2023/10/03 03:58:17;;;;;;;13.20;8.67;;;15.30;99.90;;;;;;5077325;28;20256;-81
2023/10/03 04:00:47;;;;;;;16.63;9.03;;;15.30;99.90;;;;;;5084703;28;21011;-83
2023/10/03 04:03:15;;;;;;;16.43;9.77;;;15.20;99.90;;;;;;5080676;28;20232;-82
2023/10/03 04:05:42;;;;;;;17.03;10.47;;;15.20;99.90;;;;;;5080328;28;20227;-80
2023/10/03 04:08:09;;;;;;;16.73;8.97;;;15.20;99.90;;;;;;5084688;28;20236;-81
2023/10/03 04:10:37;;;;;;;16.60;9.00;;;15.20;99.90;;;;;;5081042;28;20320;-81
2023/10/03 04:13:07;;;;;;;14.57;8.67;;;15.20;99.90;;;;;;5085023;28;20220;-82
2023/10/03 04:15:35;;;;;;;15.23;8.77;;;15.10;99.90;;;;;;5073209;28;20244;-82
2023/10/03 04:18:02;;;;;;;15.80;9.37;;;15.10;99.90;;;;;;5060617;28;20264;-82
2023/10/03 04:20:31;;;;;;;17.03;9.27;;;15.10;99.90;;;;;;5086689;28;20769;-83
2023/10/03 04:22:59;;;;;;;16.23;8.93;;;15.10;99.90;;;;;;5084943;28;20264;-82
2023/10/03 04:25:27;;;;;;;14.67;8.67;;;15.10;99.90;;;;;;5088624;28;20637;-82
2023/10/03 04:27:56;;;;;;;16.67;9.33;;;15.10;99.90;;;;;;5084348;28;20312;-83
2023/10/03 04:30:25;;;;;;;16.63;8.43;;;15.10;99.90;;;;;;5086923;28;20228;-82
2023/10/03 04:32:54;;;;;;;13.83;8.80;;;15.10;99.90;;;;;;5081856;28;20222;-83
2023/10/03 04:35:23;;;;;;;14.90;9.37;;;15.10;99.90;;;;;;5083277;28;20241;-83
2023/10/03 04:37:51;;;;;;;14.23;8.63;;;15.10;99.90;;;;;;5083135;28;20222;-84
2023/10/03 04:40:22;;;;;;;14.47;8.67;;;15.10;99.90;;;;;;5076729;28;20233;-84
2023/10/03 04:42:50;;;;;;;14.47;8.87;;;15.10;99.90;;;;;;5083902;28;20228;-83
2023/10/03 04:45:19;;;;;;;15.27;8.37;;;15.10;99.90;;;;;;5083288;28;20221;-85
2023/10/03 04:47:47;;;;;;;14.43;8.20;;;15.10;99.90;;;;;;5083526;28;20221;-84
2023/10/03 04:50:18;;;;;;;14.17;8.77;;;15.10;99.90;;;;;;5083665;28;20310;-85
2023/10/03 04:52:48;;;;;;;17.00;9.43;;;15.10;99.90;;;;;;5078146;28;20228;-86
2023/10/03 04:55:16;;;;;;;14.60;9.13;;;15.10;99.90;;;;;;5083172;28;20236;-85
2023/10/03 04:57:44;;;;;;;16.90;9.20;;;15.10;99.90;;;;;;5081843;28;20233;-84
2023/10/03 05:00:15;;;;;;;18.67;10.03;;;15.10;99.90;;;;;;5071144;28;21015;-83
2023/10/03 05:02:47;;;;;;;17.10;9.60;;;15.10;99.90;;;;;;5085730;28;20242;-85
2023/10/03 05:05:20;;;;;;;20.10;9.43;;;15.20;99.90;;;;;;5084506;28;20228;-84
2023/10/03 05:07:48;;;;;;;17.13;9.53;;;15.20;99.90;;;;;;5083113;28;20910;-84
2023/10/03 05:10:17;;;;;;;18.17;9.60;;;15.20;99.90;;;;;;5079916;28;20241;-84
2023/10/03 05:12:45;;;;;;;18.27;9.80;;;15.20;99.90;;;;;;5087462;28;20248;-82
2023/10/03 05:15:14;;;;;;;15.63;9.63;;;15.20;99.90;;;;;;5087366;28;20255;-82
2023/10/03 05:17:43;;;;;;;19.70;9.43;;;15.20;99.90;;;;;;5085942;28;20240;-82
2023/10/03 05:20:11;;;;;;;15.83;8.70;;;15.20;99.90;;;;;;5087720;28;20238;-82
2023/10/03 05:22:40;;;;;;;15.17;8.83;;;15.30;99.90;;;;;;5089753;28;20241;-81
2023/10/03 05:25:11;;;;;;;18.30;9.60;;;15.30;99.90;;;;;;5083812;28;20228;-81
2023/10/03 05:27:38;;;;;;;17.10;9.77;;;15.30;99.90;;;;;;5078874;28;20862;-82
2023/10/03 05:30:08;;;;;;;18.37;9.47;;;15.30;99.90;;;;;;5084336;28;20219;-82
2023/10/03 05:32:35;;;;;;;16.83;9.60;;;15.30;99.90;;;;;;5079297;28;20381;-82
2023/10/03 05:35:04;;;;;;;16.60;9.97;;;15.30;99.90;;;;;;5082257;28;20679;-83
2023/10/03 05:37:33;;;;;;;16.23;9.40;;;15.40;99.90;;;;;;5073180;28;20301;-83
2023/10/03 05:40:11;;;;;;;17.70;9.77;;;15.40;99.90;;;;;;5081713;28;20312;-82
2023/10/03 05:42:41;;;;;;;15.93;8.97;;;15.40;99.90;;;;;;5083185;28;20334;-81
2023/10/03 05:45:10;;;;;;;15.60;9.77;;;15.40;99.90;;;;;;5080709;28;20230;-83
2023/10/03 05:47:37;;;;;;;17.53;9.47;;;15.40;99.90;;;;;;5086246;28;20266;-81
2023/10/03 05:50:04;;;;;;;16.07;9.63;;;15.50;99.90;;;;;;5077418;28;20254;-82
2023/10/03 05:52:31;;;;;;;17.73;9.87;;;15.50;99.90;;;;;;5083955;28;20230;-81
2023/10/03 05:54:59;;;;;;;19.37;9.50;;;15.50;99.90;;;;;;5084382;28;20221;-82
2023/10/03 05:57:27;;;;;;;16.77;8.87;;;15.50;99.90;;;;;;5077000;28;20253;-82
2023/10/03 05:59:54;;;;;;;16.67;9.43;;;15.50;99.90;;;;;;5082838;28;20233;-82
2023/10/03 06:02:21;;;;;;;16.77;9.07;;;15.60;99.90;;;;;;5067350;28;20228;-82
2023/10/03 06:04:49;;;;;;;15.90;9.70;;;15.50;99.90;;;;;;5078050;28;20224;-81
2023/10/03 06:07:16;;;;;;;15.77;9.37;;;15.60;99.90;;;;;;5078819;28;20998;-81
2023/10/03 06:09:43;;;;;;;16.60;9.53;;;15.60;99.90;;;;;;5082993;28;20294;-82
2023/10/03 06:12:10;;;;;;;16.80;9.40;;;15.60;99.90;;;;;;5083630;28;20242;-82
2023/10/03 06:14:40;;;;;;;15.63;8.93;;;15.60;99.90;;;;;;5078383;28;20225;-81
2023/10/03 06:17:08;;;;;;;16.23;10.00;;;15.60;99.90;;;;;;5078122;28;20230;-81
2023/10/03 06:19:35;;;;;;;15.53;9.40;;;15.60;99.90;;;;;;5067018;28;20249;-80
2023/10/03 06:22:02;;;;;;;18.27;10.13;;;15.70;99.90;;;;;;5081404;28;20290;-82
2023/10/03 06:24:31;;;;;;;16.27;9.17;;;15.70;99.90;;;;;;5081534;28;20232;-81
2023/10/03 06:26:57;;;;;;;18.70;9.67;;;15.70;99.90;;;;;;5079502;28;20664;-85
2023/10/03 06:29:24;;;;;;;17.50;9.93;;;15.80;99.90;;;;;;5078484;28;20233;-85
2023/10/03 06:31:52;;;;;;;15.70;9.57;;;15.80;99.90;;;;;;5085458;28;20827;-84
2023/10/03 06:34:19;;;;;;;20.03;9.97;;;15.80;99.90;;;;;;5079932;28;20695;-85
2023/10/03 06:36:46;;;;;;;18.00;9.73;;;15.80;99.90;;;;;;5082327;28;20220;-86
2023/10/03 06:39:13;;;;;;;15.80;9.27;;;15.90;99.90;;;;;;5078044;28;20225;-86
2023/10/03 06:41:40;;;;;;;17.03;9.70;;;15.90;99.90;;;;;;5080658;28;20240;-85
2023/10/03 06:44:07;;;;;;;16.93;9.77;;;16.00;99.90;;;;;;5079019;28;20311;-87
2023/10/03 06:46:34;;;;;;;18.00;9.73;;;16.00;99.90;;;;;;5079769;28;20232;-84
2023/10/03 06:49:02;;;;;;;17.83;10.10;;;16.10;99.90;;;;;;5080594;28;20797;-85
2023/10/03 06:51:29;;;;;;;16.40;10.20;;;16.10;99.90;;;;;;5074024;28;20330;-86
2023/10/03 06:53:56;;;;;;;15.50;9.33;;;16.20;99.90;;;;;;5079488;28;20245;-85
2023/10/03 06:56:23;;;;;;;17.87;10.00;;;16.20;99.90;;;;;;5077814;28;20281;-86
2023/10/03 06:58:50;;;;;;;16.77;9.63;;;16.20;99.90;;;;;;5078320;28;20237;-85
2023/10/03 07:01:16;;;;;;;18.27;10.20;;;16.30;99.90;;;;;;5078181;28;20218;-86
2023/10/03 07:03:43;;;;;;;19.33;10.50;;;16.40;99.90;;;;;;5080147;28;20336;-87
2023/10/03 07:06:12;;;;;;;15.27;9.80;;;16.40;99.90;;;;;;5074914;28;20221;-85
2023/10/03 07:08:41;;;;;;;18.70;10.63;;;16.50;99.90;;;;;;5083228;28;20226;-85
2023/10/03 07:11:12;;;;;;;16.03;9.47;;;16.50;99.90;;;;;;5070673;28;20336;-85
2023/10/03 07:13:39;;;;;;;16.83;9.57;;;16.60;99.90;;;;;;5081278;28;20327;-88
2023/10/03 07:16:06;;;;;;;16.70;9.60;;;16.60;99.90;;;;;;5082836;28;20230;-89
2023/10/03 07:18:35;;;;;;;17.60;9.80;;;16.70;99.90;;;;;;5096596;28;20666;-87
2023/10/03 07:21:03;;;;;;;18.50;10.30;;;16.80;99.90;;;;;;5082069;28;20248;-86
2023/10/03 07:23:31;;;;;;;16.83;9.73;;;16.90;99.90;;;;;;5066959;28;20224;-85
2023/10/03 07:25:58;;;;;;;16.90;9.80;;;17.00;99.90;;;;;;5075725;28;20226;-82
2023/10/03 07:28:25;;;;;;;20.00;9.80;;;17.10;99.90;;;;;;5061062;28;20826;-83
2023/10/03 07:30:51;;;;;;;21.17;10.13;;;17.20;99.90;;;;;;5060208;28;20629;-84
2023/10/03 07:33:19;;;;;;;17.90;10.20;;;17.30;99.90;;;;;;5051068;28;20755;-82
2023/10/03 07:35:46;;;;;;;20.73;10.07;;;17.50;99.90;;;;;;5060034;28;20315;-82
2023/10/03 07:38:14;;;;;;;16.98;9.70;;;17.70;99.90;;;;;;5064702;28;20318;-83
2023/10/03 07:40:43;;;;;;;20.90;10.90;;;17.80;99.90;;;;;;5064390;28;20227;-83
2023/10/03 07:43:10;;;;;;;18.20;10.57;;;17.90;99.90;;;;;;5068070;28;20288;-83
2023/10/03 07:45:37;;;;;;;16.98;9.68;;;18.00;99.90;;;;;;5058137;28;20325;-81
2023/10/03 07:48:06;;;;;;;20.35;10.73;;;18.20;99.90;;;;;;5057836;28;20220;-81
2023/10/03 07:50:34;;;;;;;20.83;10.32;;;18.30;99.90;;;;;;5079384;28;20901;-82
2023/10/03 07:53:01;;;;;;;20.75;11.57;;;18.40;99.90;;;;;;5080764;28;20326;-82
2023/10/03 07:55:28;;;;;;;20.25;10.63;;;18.50;99.90;;;;;;5076421;28;20376;-82
2023/10/03 07:58:00;;;;;;;18.05;10.02;;;18.60;99.90;;;;;;5077806;28;20230;-82
2023/10/03 08:00:27;;;;;;;19.58;10.27;;;18.80;99.90;;;;;;5075454;28;20317;-83
2023/10/03 08:02:54;;;;;;;21.15;10.23;;;18.90;99.90;;;;;;5074950;28;20223;-84
2023/10/03 08:05:25;;;;;;;18.52;11.60;;;19.00;99.90;;;;;;5078830;28;20257;-82
2023/10/03 08:07:52;;;;;;;18.60;10.15;;;19.10;99.90;;;;;;5069076;28;20754;-85
2023/10/03 08:10:19;;;;;;;20.77;11.20;;;19.20;99.90;;;;;;5077152;28;20317;-84
2023/10/03 08:12:49;;;;;;;33.58;11.60;;;19.30;99.90;;;;;;5080019;28;20222;-84
2023/10/03 08:15:21;;;;;;;19.50;10.70;;;19.40;99.90;;;;;;5085329;28;20965;-85
2023/10/03 08:17:53;;;;;;;21.60;11.38;;;19.50;99.90;;;;;;5075613;28;20240;-86
2023/10/03 08:20:21;;;;;;;19.95;10.82;;;19.50;99.90;;;;;;5054273;28;20252;-85
2023/10/03 08:22:51;;;;;;;20.23;10.90;;;19.60;99.90;;;;;;5079526;28;20301;-83
2023/10/03 08:25:19;;;;;;;23.52;11.25;;;19.70;99.90;;;;;;5072500;28;20226;-85
2023/10/03 08:27:47;;;;;;;15.82;9.93;;;19.70;99.90;;;;;;5078973;28;20249;-84
2023/10/03 08:30:27;;;;;;;18.23;10.27;;;19.70;99.90;;;;;;5079199;28;20219;-86
2023/10/03 08:32:55;;;;;;;17.80;10.93;;;19.80;99.90;;;;;;5079710;28;20222;-85
2023/10/03 08:35:34;;;;;;;22.02;11.60;;;20.00;99.90;;;;;;5071703;28;20282;-84
2023/10/03 08:38:05;;;;;;;21.60;11.00;;;20.10;99.90;;;;;;5091741;28;20227;-84
2023/10/03 08:40:40;;;;;;;16.80;9.90;;;20.40;99.90;;;;;;5077067;28;21935;-84
2023/10/03 08:43:09;;;;;;;17.30;10.48;;;20.70;99.90;;;;;;5078779;27;20389;-84
2023/10/03 08:45:41;;;;;;;19.30;9.63;;;21.00;99.90;;;;;;5080102;28;20266;-85
2023/10/03 08:48:09;;;;;;;18.67;10.18;;;21.40;99.90;;;;;;5073828;27;20309;-85
2023/10/03 08:50:40;;;;;;;16.75;9.68;;;21.70;99.90;;;;;;5078535;28;20227;-86
2023/10/03 08:53:16;;;;;;;17.20;9.07;;;22.00;99.90;;;;;;5069865;28;20215;-85
2023/10/03 08:55:47;;;;;;;18.35;9.40;;;22.20;99.90;;;;;;5077710;28;20535;-84
2023/10/03 08:58:16;;;;;;;16.48;9.32;;;22.50;99.90;;;;;;5082979;27;20227;-88
2023/10/03 09:00:46;;;;;;;19.58;9.00;;;22.80;99.90;;;;;;5081964;28;20222;-87
2023/10/03 09:03:15;;;;;;;17.58;9.55;;;23.10;99.90;;;;;;5082235;27;20242;-86
2023/10/03 09:05:42;;;;;;;15.45;8.40;;;23.30;99.90;;;;;;5086672;28;20238;-86
2023/10/03 09:08:09;;;;;;;14.90;8.75;;;23.60;99.90;;;;;;5085477;28;20408;-84
2023/10/03 09:10:50;;;;;;;14.43;8.45;;;23.80;99.90;;;;;;5082995;28;20860;-85
2023/10/03 09:13:23;;;;;;;16.58;9.88;;;24.10;99.90;;;;;;5081697;28;20379;-85
2023/10/03 09:15:59;;;;;;;14.68;7.95;;;24.20;99.90;;;;;;5083537;27;20234;-85
2023/10/03 09:18:27;;;;;;;14.40;6.95;;;24.30;99.90;;;;;;5072395;28;21504;-82
2023/10/03 09:20:59;;;;;;;14.63;7.35;;;24.30;99.90;;;;;;5077803;28;20219;-82
2023/10/03 09:23:30;;;;;;;16.10;6.82;;;24.20;99.90;;;;;;5079436;27;20250;-83
2023/10/03 09:25:57;;;;;;;11.40;6.78;;;24.00;99.90;;;;;;5080103;28;20229;-83
2023/10/03 09:28:35;;;;;;;13.07;6.97;;;23.80;99.90;;;;;;5081378;28;20564;-84
2023/10/03 09:31:02;;;;;;;13.88;7.25;;;23.50;99.90;;;;;;5080737;28;20306;-84
2023/10/03 09:33:29;;;;;;;11.32;6.93;;;23.30;99.90;;;;;;5080742;28;20655;-84
2023/10/03 09:36:00;;;;;;;13.57;7.22;;;23.10;99.90;;;;;;5082329;28;20207;-84
2023/10/03 09:38:44;;;;;;;12.75;7.05;;;22.90;99.90;;;;;;5079661;28;20234;-84
2023/10/03 09:41:17;;;;;;;16.02;7.95;;;22.70;99.90;;;;;;5079984;27;20230;-82
2023/10/03 09:43:53;;;;;;;15.57;7.65;;;22.50;99.90;;;;;;5082062;28;20370;-83
2023/10/03 09:46:26;;;;;;;13.20;7.70;;;22.30;99.90;;;;;;5079416;28;20664;-83
2023/10/03 09:49:07;;;;;;;11.93;7.05;;;22.10;99.90;;;;;;5081748;28;20753;-85
2023/10/03 09:51:47;;;;;;;14.40;7.50;;;22.00;99.90;;;;;;5080412;27;20291;-85
2023/10/03 09:54:24;;;;;;;14.43;7.32;;;21.80;99.90;;;;;;5079083;28;20299;-85
2023/10/03 09:56:55;;;;;;;11.82;7.65;;;21.60;99.90;;;;;;5078821;28;20233;-85
2023/10/03 09:59:24;;;;;;;14.75;7.63;;;21.60;99.90;;;;;;5079600;27;20305;-85
2023/10/03 10:01:56;;;;;;;15.45;7.65;;;21.50;99.90;;;;;;5079947;28;20231;-86
2023/10/03 10:04:25;;;;;;;14.88;7.68;;;21.50;99.90;;;;;;5079406;27;20273;-85
2023/10/03 10:06:55;;;;;;;19.33;7.72;;;21.60;99.90;;;;;;5079442;28;20219;-85
2023/10/03 10:09:28;;;;;;;11.85;6.97;;;21.60;99.90;;;;;;5081053;27;20317;-86
2023/10/03 10:12:19;;;;;;;13.88;7.18;;;21.70;99.90;;;;;;5079936;28;20240;-84
2023/10/03 10:15:13;;;;;;;12.77;7.13;;;21.80;99.90;;;;;;5076440;28;20230;-85
2023/10/03 10:17:52;;;;;;;12.43;7.35;;;21.90;99.90;;;;;;5071906;28;20224;-82
2023/10/03 10:20:27;;;;;;;13.63;6.75;;;22.00;99.90;;;;;;5069700;28;20250;-83
2023/10/03 10:23:16;;;;;;;13.45;6.75;;;21.90;99.90;;;;;;5081908;28;20218;-83
2023/10/03 10:25:50;;;;;;;12.55;6.60;;;21.90;99.90;;;;;;5078300;28;20541;-83
2023/10/03 10:28:21;;;;;;;11.18;6.57;;;21.90;99.90;;;;;;5080681;27;20731;-83
2023/10/03 10:31:16;;;;;;;13.23;6.80;;;21.90;99.90;;;;;;5076566;28;20219;-84
2023/10/03 10:33:45;;;;;;;11.48;6.93;;;21.90;99.90;;;;;;5069506;28;20363;-83
2023/10/03 10:36:12;;;;;;;10.93;5.70;;;21.90;99.90;;;;;;5080106;28;20215;-83
2023/10/03 10:38:53;;;;;;;12.50;6.18;;;21.80;99.90;;;;;;5078653;28;20547;-84
2023/10/03 10:41:26;;;;;;;14.10;6.90;;;21.70;99.90;;;;;;5071361;28;20245;-83
2023/10/03 10:44:07;;;;;;;13.23;6.07;;;21.60;99.90;;;;;;5080737;28;20227;-84
2023/10/03 10:46:36;;;;;;;10.65;5.90;;;21.50;99.90;;;;;;5077253;28;20876;-84
2023/10/03 10:49:06;;;;;;;10.52;5.88;;;21.40;99.90;;;;;;5080034;28;20218;-84
2023/10/03 10:51:34;;;;;;;10.90;5.22;;;21.30;99.90;;;;;;5072617;28;20227;-85
2023/10/03 10:54:02;;;;;;;8.48;5.03;;;21.20;99.90;;;;;;5075505;28;20223;-84
2023/10/03 10:56:32;;;;;;;9.10;4.40;;;21.00;99.90;;;;;;5074898;28;20219;-84
2023/10/03 10:59:04;;;;;;;8.35;4.55;;;20.90;99.90;;;;;;5081939;28;20238;-85
2023/10/03 11:01:37;;;;;;;9.60;3.90;;;20.80;99.90;;;;;;5076650;28;20338;-83
2023/10/03 11:04:05;;;;;;;6.70;4.50;;;20.70;99.90;;;;;;5079529;28;20221;-83
2023/10/03 11:06:32;;;;;;;8.35;4.32;;;20.50;99.90;;;;;;5076312;28;20231;-84
2023/10/03 11:08:59;;;;;;;10.30;4.47;;;20.30;99.90;;;;;;5080310;28;20222;-85
2023/10/03 11:11:35;;;;;;;8.23;4.60;;;20.10;99.90;;;;;;5077604;28;20285;-83
2023/10/03 11:14:02;;;;;;;7.40;4.30;;;20.00;99.90;;;;;;5071658;28;20378;-84
2023/10/03 11:16:31;;;;;;;8.68;4.90;;;19.80;99.90;;;;;;5079296;28;20288;-84
2023/10/03 11:18:59;;;;;;;7.10;4.78;;;19.60;99.90;;;;;;5081457;28;20337;-82
2023/10/03 11:21:30;;;;;;;10.82;5.50;;;19.40;99.90;;;;;;5079378;28;20231;-83
2023/10/03 11:24:14;;;;;;;10.27;5.40;;;19.10;99.90;;;;;;5074526;28;20223;-83
2023/10/03 11:26:46;;;;;;;9.25;3.92;;;18.90;99.90;;;;;;5080891;27;20226;-83
2023/10/03 11:29:14;;;;;;;7.45;4.53;;;18.70;99.90;;;;;;5069119;28;20268;-82
2023/10/03 11:31:42;;;;;;;8.60;4.90;;;18.50;99.90;;;;;;5073352;28;20392;-83
2023/10/03 11:34:09;;;;;;;9.40;4.97;;;18.30;99.90;;;;;;5078110;27;20222;-82
2023/10/03 11:36:44;;;;;;;9.33;4.17;;;18.20;99.90;;;;;;5082183;28;20838;-82
2023/10/03 11:39:13;;;;;;;8.07;4.00;;;18.10;99.90;;;;;;5082646;27;20287;-82
2023/10/03 11:41:40;;;;;;;8.70;4.33;;;18.00;99.90;;;;;;5076277;27;20260;-82
2023/10/03 11:44:19;;;;;;;8.40;3.90;;;17.90;99.90;;;;;;5084273;28;20574;-83
2023/10/03 11:46:46;;;;;;;6.73;4.03;;;17.90;99.90;;;;;;5073619;28;20307;-83
2023/10/03 11:49:13;;;;;;;7.95;3.90;;;17.90;99.90;;;;;;5083369;28;20314;-84
2023/10/03 11:51:43;;;;;;;6.20;3.30;;;17.80;99.90;;;;;;5078553;28;20322;-85
2023/10/03 11:54:13;;;;;;;6.20;3.03;;;17.80;99.90;;;;;;5079070;28;20218;-83
2023/10/03 11:56:42;;;;;;;4.77;3.10;;;17.80;99.90;;;;;;5072260;28;20231;-83
2023/10/03 11:59:14;;;;;;;5.07;2.53;;;17.70;99.90;;;;;;5080845;28;20238;-83
2023/10/03 12:01:42;;;;;;;6.43;2.23;;;17.70;99.90;;;;;;5078740;28;20234;-83
2023/10/03 12:04:09;;;;;;;4.67;1.60;;;17.60;99.90;;;;;;5084868;27;20222;-84
2023/10/03 12:06:37;;;;;;;5.43;1.77;;;17.50;99.90;;;;;;5081776;28;20237;-81
2023/10/03 12:09:08;;;;;;;7.30;1.63;;;17.50;99.90;;;;;;5082246;27;20210;-81
2023/10/03 12:11:37;;;;;;;3.77;1.30;;;17.40;99.90;;;;;;5082827;27;20948;-83
2023/10/03 12:14:04;;;;;;;4.83;1.53;;;17.40;99.90;;;;;;5081198;27;20222;-83
2023/10/03 12:16:31;;;;;;;7.00;1.70;;;17.30;99.90;;;;;;5079000;27;20242;-83
2023/10/03 12:18:58;;;;;;;4.63;1.50;;;17.30;99.90;;;;;;5075904;28;20219;-83
2023/10/03 12:21:25;;;;;;;4.87;1.23;;;17.30;99.90;;;;;;5078176;28;20227;-83
2023/10/03 12:23:51;;;;;;;6.90;1.10;;;17.20;99.90;;;;;;5074038;28;20222;-84
2023/10/03 12:26:20;;;;;;;3.47;0.80;;;17.10;99.90;;;;;;5079935;28;20831;-83
2023/10/03 12:28:49;;;;;;;2.00;0.90;;;17.10;99.90;;;;;;5075971;28;20234;-82
2023/10/03 12:31:21;;;;;;;3.83;0.90;;;17.00;99.90;;;;;;5083014;27;20241;-84
2023/10/03 12:33:48;;;;;;;2.70;0.90;;;16.90;99.90;;;;;;5078726;28;20249;-83
2023/10/03 12:36:16;;;;;;;2.23;1.00;;;16.90;99.90;;;;;;5078596;28;20300;-84
2023/10/03 12:38:43;;;;;;;4.27;0.90;;;16.80;99.90;;;;;;5084983;27;20592;-84
2023/10/03 12:41:10;;;;;;;1.80;0.80;;;16.60;99.90;;;;;;5083246;28;20734;-85
2023/10/03 12:43:39;;;;;;;3.37;0.80;;;16.50;99.90;;;;;;5080653;28;20324;-83